Time;durP1;ratioP1;P1;durP2;ratioP2;P2;SDS_P1;SDS_P2;PMS_P1;PMS_P2;Temp;Humidity;BMP_temperature;BMP_pressure;BME280_temperature;BME280_humidity;BME280_pressure;Samples;Min_cycle;Max_cycle;Signal;HPM_P1;HPM_P2
2023/02/17 00:01:22;;;;;;;0.07;0.07;;;6.20;99.90;;;;;;5025024;28;20582;-79
2023/02/17 00:03:49;;;;;;;0.10;0.10;;;6.20;99.90;;;;;;5027369;28;20217;-79
2023/02/17 00:06:16;;;;;;;0.10;0.10;;;6.20;99.90;;;;;;5024793;28;20181;-79
2023/02/17 00:08:41;;;;;;;0.10;0.10;;;6.10;99.90;;;;;;5025934;28;20189;-78
2023/02/17 00:11:07;;;;;;;0.10;0.10;;;6.20;99.90;;;;;;5023641;28;20209;-80
2023/02/17 00:13:33;;;;;;;0.10;0.10;;;6.30;99.90;;;;;;5024638;28;20249;-79
2023/02/17 00:15:59;;;;;;;0.10;0.10;;;6.30;99.90;;;;;;5022174;28;20251;-79
2023/02/17 00:18:24;;;;;;;0.10;0.10;;;6.50;99.90;;;;;;5024585;28;20666;-80
2023/02/17 00:20:50;;;;;;;0.10;0.10;;;6.50;99.90;;;;;;5026450;28;20186;-79
2023/02/17 00:23:16;;;;;;;0.10;0.10;;;6.50;99.90;;;;;;5026304;28;20685;-79
2023/02/17 00:25:42;;;;;;;0.10;0.10;;;6.60;99.90;;;;;;5025142;28;20268;-79
2023/02/17 00:28:07;;;;;;;0.10;0.10;;;6.70;99.90;;;;;;5025637;28;20180;-79
2023/02/17 00:30:33;;;;;;;0.10;0.10;;;6.70;99.90;;;;;;5026254;28;20245;-79
2023/02/17 00:32:58;;;;;;;0.10;0.10;;;6.80;99.90;;;;;;5026174;28;20200;-79
2023/02/17 00:35:24;;;;;;;0.10;0.10;;;6.80;99.90;;;;;;5024201;28;20179;-79
2023/02/17 00:37:50;;;;;;;0.10;0.10;;;6.80;99.90;;;;;;5024808;28;20560;-79
2023/02/17 00:40:15;;;;;;;0.00;0.00;;;6.80;99.90;;;;;;5027071;28;20266;-79
2023/02/17 00:42:41;;;;;;;0.10;0.10;;;6.90;99.90;;;;;;5024209;28;20265;-79
2023/02/17 00:45:07;;;;;;;0.10;0.10;;;6.90;99.90;;;;;;5026280;28;20197;-78
2023/02/17 00:47:33;;;;;;;0.10;0.10;;;6.90;99.90;;;;;;5024065;28;20186;-79
2023/02/17 00:49:59;;;;;;;0.10;0.10;;;7.00;99.90;;;;;;5025836;28;20191;-79
2023/02/17 00:52:24;;;;;;;0.10;0.10;;;7.00;99.90;;;;;;5023138;28;20207;-79
2023/02/17 00:54:50;;;;;;;0.10;0.10;;;6.80;99.90;;;;;;5022073;28;20656;-79
2023/02/17 00:57:15;;;;;;;0.10;0.10;;;6.60;99.90;;;;;;5025853;28;20184;-79
2023/02/17 00:59:41;;;;;;;0.10;0.10;;;6.30;99.90;;;;;;5024099;28;20213;-79
2023/02/17 01:02:07;;;;;;;0.10;0.10;;;6.20;99.90;;;;;;5024638;28;20205;-79
2023/02/17 01:04:32;;;;;;;0.10;0.10;;;6.10;99.90;;;;;;5024234;28;20226;-79
2023/02/17 01:06:58;;;;;;;0.10;0.10;;;6.00;99.90;;;;;;5023752;28;20180;-79
2023/02/17 01:09:23;;;;;;;0.10;0.10;;;6.20;99.90;;;;;;5024367;28;20193;-78
2023/02/17 01:11:49;;;;;;;0.10;0.10;;;6.30;99.90;;;;;;5022417;28;20242;-79
2023/02/17 01:14:14;;;;;;;0.10;0.10;;;6.50;99.90;;;;;;5023359;28;20274;-79
2023/02/17 01:16:44;;;;;;;0.10;0.10;;;6.50;99.90;;;;;;5018876;28;20185;-79
2023/02/17 01:19:13;;;;;;;0.10;0.10;;;6.60;99.90;;;;;;5024031;28;20180;-79
2023/02/17 01:21:39;;;;;;;0.10;0.10;;;6.60;99.90;;;;;;5022137;28;20517;-79
2023/02/17 01:24:06;;;;;;;0.10;0.10;;;6.80;99.90;;;;;;5021936;28;20179;-79
2023/02/17 01:26:33;;;;;;;0.10;0.10;;;6.90;99.90;;;;;;5023543;28;20218;-79
2023/02/17 01:28:59;;;;;;;0.10;0.10;;;6.60;99.90;;;;;;5021295;28;20975;-79
2023/02/17 01:31:26;;;;;;;0.10;0.10;;;6.80;99.90;;;;;;5025751;28;20526;-79
2023/02/17 01:33:53;;;;;;;0.10;0.10;;;6.70;99.90;;;;;;5023990;28;20625;-79
2023/02/17 01:36:19;;;;;;;0.10;0.10;;;6.80;99.90;;;;;;5023240;28;20776;-80
2023/02/17 01:38:45;;;;;;;0.10;0.10;;;6.90;99.90;;;;;;5024332;28;20310;-79
2023/02/17 01:41:13;;;;;;;0.10;0.10;;;7.00;99.90;;;;;;5023149;28;20280;-79
2023/02/17 01:43:39;;;;;;;0.10;0.10;;;7.10;99.90;;;;;;5023205;28;20227;-79
2023/02/17 01:46:06;;;;;;;0.10;0.10;;;7.20;99.90;;;;;;5023412;28;20183;-79
2023/02/17 01:48:49;;;;;;;0.10;0.10;;;7.30;99.90;;;;;;5022726;28;20606;-78
2023/02/17 01:51:20;;;;;;;0.10;0.10;;;7.30;99.90;;;;;;5025362;28;20201;-79
2023/02/17 01:54:01;;;;;;;0.10;0.10;;;7.40;99.90;;;;;;5023229;28;21099;-79
2023/02/17 01:56:28;;;;;;;0.00;0.00;;;7.40;99.90;;;;;;5024753;28;20184;-79
2023/02/17 01:59:03;;;;;;;0.00;0.00;;;7.50;99.90;;;;;;5025007;28;20230;-79
2023/02/17 02:01:30;;;;;;;0.10;0.10;;;7.40;99.90;;;;;;5023844;28;20209;-79
2023/02/17 02:03:56;;;;;;;0.10;0.10;;;7.50;99.90;;;;;;5026417;28;20259;-79
2023/02/17 02:06:26;;;;;;;0.10;0.10;;;7.50;99.90;;;;;;5025586;28;21176;-79
2023/02/17 02:09:06;;;;;;;0.10;0.10;;;7.60;99.90;;;;;;5027826;28;20207;-79
2023/02/17 02:11:32;;;;;;;0.10;0.10;;;7.60;99.90;;;;;;5027207;28;20232;-79
2023/02/17 02:13:59;;;;;;;0.10;0.10;;;7.70;99.90;;;;;;5029400;28;20567;-79
2023/02/17 02:16:43;;;;;;;0.10;0.10;;;7.70;99.90;;;;;;5026728;28;20179;-79
2023/02/17 02:19:14;;;;;;;0.10;0.10;;;7.70;99.90;;;;;;5028565;28;20183;-79
2023/02/17 02:22:03;;;;;;;0.10;0.10;;;7.70;99.90;;;;;;5028316;28;20204;-79
2023/02/17 02:24:45;;;;;;;0.10;0.10;;;7.80;99.90;;;;;;5027375;28;21034;-79
2023/02/17 02:27:22;;;;;;;0.10;0.10;;;7.80;99.90;;;;;;5027861;28;20643;-79
2023/02/17 02:30:01;;;;;;;0.00;0.00;;;7.70;99.90;;;;;;5028094;28;20247;-79
2023/02/17 02:33:04;;;;;;;0.10;0.10;;;7.80;99.90;;;;;;5028920;28;20263;-78
2023/02/17 02:35:52;;;;;;;0.10;0.10;;;7.50;99.90;;;;;;5004150;28;20205;-79
2023/02/17 02:38:30;;;;;;;0.10;0.10;;;7.40;99.90;;;;;;5027309;28;20205;-79
2023/02/17 02:41:04;;;;;;;0.03;0.03;;;7.30;99.90;;;;;;5025962;28;20185;-79
2023/02/17 02:43:31;;;;;;;0.10;0.10;;;7.50;99.90;;;;;;5027376;28;20232;-79
2023/02/17 02:45:56;;;;;;;0.10;0.10;;;7.60;99.90;;;;;;5026588;28;20228;-79
2023/02/17 02:48:22;;;;;;;0.10;0.10;;;7.60;99.90;;;;;;5028397;28;20216;-79
2023/02/17 02:50:54;;;;;;;0.10;0.10;;;7.70;99.90;;;;;;5025775;28;20301;-79
2023/02/17 02:53:47;;;;;;;0.10;0.10;;;7.70;99.90;;;;;;5024223;28;20249;-79
2023/02/17 02:56:30;;;;;;;0.10;0.10;;;7.80;99.90;;;;;;5027429;28;20201;-79
2023/02/17 02:59:27;;;;;;;0.10;0.10;;;7.80;99.90;;;;;;5025218;28;20178;-79
2023/02/17 03:02:02;;;;;;;0.10;0.10;;;7.80;99.90;;;;;;5043767;28;20188;-79
2023/02/17 03:04:48;;;;;;;0.10;0.10;;;7.80;99.90;;;;;;5025152;28;20189;-78
2023/02/17 03:07:21;;;;;;;0.10;0.10;;;7.80;99.90;;;;;;5026945;28;20185;-79
2023/02/17 03:09:52;;;;;;;0.10;0.10;;;7.90;99.90;;;;;;5027429;28;20456;-79
2023/02/17 03:12:20;;;;;;;0.10;0.10;;;7.90;99.90;;;;;;5029725;28;20650;-79
2023/02/17 03:14:48;;;;;;;0.10;0.10;;;7.70;99.90;;;;;;5026408;28;20181;-78
2023/02/17 03:17:14;;;;;;;0.10;0.10;;;7.80;99.90;;;;;;5023513;28;20274;-79
2023/02/17 03:19:40;;;;;;;0.00;0.00;;;7.80;99.90;;;;;;5027944;28;20206;-79
2023/02/17 03:22:23;;;;;;;0.10;0.10;;;7.80;99.90;;;;;;5026244;28;20206;-79
2023/02/17 03:24:48;;;;;;;0.10;0.10;;;7.60;99.90;;;;;;5024022;28;20236;-79
2023/02/17 03:27:14;;;;;;;0.10;0.10;;;7.50;99.90;;;;;;5026125;28;20619;-79
2023/02/17 03:29:40;;;;;;;0.10;0.10;;;7.50;99.90;;;;;;5026162;28;20197;-79
2023/02/17 03:32:06;;;;;;;0.10;0.10;;;7.60;99.90;;;;;;5028282;28;20273;-79
2023/02/17 03:34:31;;;;;;;0.10;0.10;;;7.70;99.90;;;;;;5022870;28;20211;-79
2023/02/17 03:36:57;;;;;;;0.10;0.10;;;7.60;99.90;;;;;;5027294;28;20185;-79
2023/02/17 03:39:23;;;;;;;0.03;0.03;;;7.70;99.90;;;;;;5026198;28;20198;-79
2023/02/17 03:41:50;;;;;;;0.10;0.10;;;7.80;99.90;;;;;;5025929;28;20679;-79
2023/02/17 03:44:17;;;;;;;0.10;0.10;;;7.70;99.90;;;;;;5025277;28;20186;-79
2023/02/17 03:46:43;;;;;;;0.10;0.10;;;7.80;99.90;;;;;;5023812;28;20188;-79
2023/02/17 03:49:08;;;;;;;0.10;0.10;;;7.90;99.90;;;;;;5027762;28;20260;-79
2023/02/17 03:51:34;;;;;;;0.10;0.10;;;8.00;99.90;;;;;;5027263;28;20293;-79
2023/02/17 03:53:59;;;;;;;0.10;0.10;;;8.00;99.90;;;;;;5024658;28;20256;-79
2023/02/17 03:56:25;;;;;;;0.10;0.10;;;8.10;99.90;;;;;;5026013;28;20184;-79
2023/02/17 03:58:51;;;;;;;0.10;0.10;;;8.30;99.90;;;;;;5022552;28;20231;-79
2023/02/17 04:01:16;;;;;;;0.10;0.10;;;8.30;99.90;;;;;;5025921;28;20209;-79
2023/02/17 04:03:42;;;;;;;0.10;0.10;;;8.40;99.90;;;;;;5023742;28;20213;-79
2023/02/17 04:06:09;;;;;;;0.10;0.10;;;8.50;99.90;;;;;;5026971;28;20221;-79
2023/02/17 04:08:35;;;;;;;0.00;0.00;;;8.50;99.90;;;;;;5022252;28;20468;-79
2023/02/17 04:11:02;;;;;;;0.10;0.10;;;8.60;99.90;;;;;;5026029;28;20195;-79
2023/02/17 04:13:28;;;;;;;0.03;0.03;;;8.60;99.90;;;;;;5021175;28;20247;-80
2023/02/17 04:15:54;;;;;;;0.10;0.10;;;8.60;99.90;;;;;;5026665;28;20174;-79
2023/02/17 04:18:21;;;;;;;0.10;0.10;;;8.70;99.90;;;;;;5027057;28;20176;-79
2023/02/17 04:20:48;;;;;;;0.10;0.10;;;8.70;99.90;;;;;;5024533;28;20195;-79
2023/02/17 04:23:15;;;;;;;0.10;0.10;;;8.70;99.90;;;;;;5025209;28;20301;-79
2023/02/17 04:25:41;;;;;;;0.10;0.10;;;8.70;99.90;;;;;;5026372;28;20185;-79
2023/02/17 04:28:06;;;;;;;0.00;0.00;;;8.70;99.90;;;;;;5024122;28;20182;-79
2023/02/17 04:30:33;;;;;;;0.00;0.00;;;8.70;99.90;;;;;;5026581;28;20262;-79
2023/02/17 04:32:59;;;;;;;0.03;0.03;;;8.70;99.90;;;;;;5026888;28;20202;-79
2023/02/17 04:35:25;;;;;;;0.10;0.10;;;8.80;99.90;;;;;;5024508;28;20189;-79
2023/02/17 04:37:51;;;;;;;0.03;0.03;;;8.70;99.90;;;;;;5022823;28;20182;-79
2023/02/17 04:40:18;;;;;;;0.10;0.10;;;8.80;99.90;;;;;;5024437;28;20197;-79
2023/02/17 04:42:43;;;;;;;0.10;0.10;;;8.70;99.90;;;;;;5024602;28;20299;-79
2023/02/17 04:45:09;;;;;;;0.10;0.10;;;8.70;99.90;;;;;;5023547;28;20719;-79
2023/02/17 04:47:35;;;;;;;0.10;0.10;;;8.70;99.90;;;;;;5024514;28;20174;-79
2023/02/17 04:50:01;;;;;;;0.10;0.10;;;8.80;99.90;;;;;;5023341;28;20230;-79
2023/02/17 04:52:26;;;;;;;0.10;0.10;;;8.80;99.90;;;;;;5024322;28;20217;-79
2023/02/17 04:54:52;;;;;;;0.00;0.00;;;8.80;99.90;;;;;;5026216;28;20643;-80
2023/02/17 04:57:18;;;;;;;0.00;0.00;;;8.80;99.90;;;;;;5023572;28;20189;-80
2023/02/17 04:59:43;;;;;;;0.10;0.10;;;8.80;99.90;;;;;;5024459;28;20201;-79
2023/02/17 05:02:09;;;;;;;0.10;0.10;;;8.80;99.90;;;;;;5026303;28;20202;-79
2023/02/17 05:04:35;;;;;;;0.10;0.10;;;8.90;99.90;;;;;;5021619;28;20792;-79
2023/02/17 05:07:00;;;;;;;0.10;0.10;;;8.90;99.90;;;;;;5024474;28;20652;-79
2023/02/17 05:09:26;;;;;;;0.10;0.10;;;8.90;99.90;;;;;;5023980;28;20182;-79
2023/02/17 05:11:51;;;;;;;0.10;0.10;;;8.90;99.90;;;;;;5025513;28;20210;-79
2023/02/17 05:14:17;;;;;;;0.10;0.10;;;9.00;99.90;;;;;;5026417;28;20189;-79
2023/02/17 05:16:43;;;;;;;0.10;0.10;;;9.00;99.90;;;;;;5021018;28;20182;-79
2023/02/17 05:19:08;;;;;;;0.03;0.03;;;9.00;99.90;;;;;;5024667;28;20196;-79
2023/02/17 05:21:34;;;;;;;0.10;0.10;;;9.00;99.90;;;;;;5024084;28;20189;-79
2023/02/17 05:23:59;;;;;;;0.03;0.03;;;9.00;99.90;;;;;;5021616;28;20310;-79
2023/02/17 05:26:25;;;;;;;0.10;0.10;;;9.00;99.90;;;;;;5025241;28;20599;-79
2023/02/17 05:28:51;;;;;;;0.10;0.10;;;9.00;99.90;;;;;;5025256;28;20450;-80
2023/02/17 05:31:17;;;;;;;0.10;0.10;;;9.00;99.90;;;;;;5024385;28;20699;-79
2023/02/17 05:33:42;;;;;;;0.10;0.10;;;9.00;99.90;;;;;;5019963;28;20209;-79
2023/02/17 05:36:09;;;;;;;0.10;0.10;;;9.00;99.90;;;;;;5023582;28;21140;-79
2023/02/17 05:38:35;;;;;;;0.10;0.10;;;9.00;99.90;;;;;;5023877;28;20185;-79
2023/02/17 05:41:01;;;;;;;0.10;0.10;;;9.10;99.90;;;;;;5024538;28;20197;-80
2023/02/17 05:43:27;;;;;;;0.03;0.03;;;9.10;99.90;;;;;;5025569;28;20206;-79
2023/02/17 05:45:52;;;;;;;0.10;0.10;;;9.10;99.90;;;;;;5023537;28;20670;-79
2023/02/17 05:48:18;;;;;;;0.10;0.10;;;9.10;99.90;;;;;;5022342;28;20186;-79
2023/02/17 05:50:44;;;;;;;0.10;0.10;;;9.10;99.90;;;;;;5023185;28;20222;-79
2023/02/17 05:53:09;;;;;;;0.10;0.10;;;9.10;99.90;;;;;;5021544;28;20198;-79
2023/02/17 05:55:35;;;;;;;0.10;0.10;;;9.10;99.90;;;;;;5025292;28;20904;-79
2023/02/17 05:58:01;;;;;;;0.10;0.10;;;9.10;99.90;;;;;;5023603;28;20179;-79
2023/02/17 06:00:27;;;;;;;0.10;0.10;;;9.10;99.90;;;;;;5020441;28;20249;-79
2023/02/17 06:02:52;;;;;;;0.10;0.10;;;9.20;99.90;;;;;;5025049;28;20209;-79
2023/02/17 06:05:18;;;;;;;0.00;0.00;;;9.20;99.90;;;;;;5023086;28;20182;-79
2023/02/17 06:07:44;;;;;;;0.10;0.10;;;9.20;99.90;;;;;;5024235;28;20218;-79
2023/02/17 06:10:09;;;;;;;0.10;0.10;;;9.10;99.90;;;;;;5024541;28;20190;-79
2023/02/17 06:12:35;;;;;;;0.10;0.10;;;9.10;99.90;;;;;;5024055;28;20573;-79
2023/02/17 06:15:01;;;;;;;0.10;0.10;;;9.20;99.90;;;;;;5021405;28;20557;-80
2023/02/17 06:17:26;;;;;;;0.10;0.10;;;9.20;99.90;;;;;;5023636;28;20270;-79
2023/02/17 06:19:52;;;;;;;0.00;0.00;;;9.20;99.90;;;;;;5023928;28;20186;-79
2023/02/17 06:22:17;;;;;;;0.10;0.10;;;9.00;99.90;;;;;;5023085;28;20206;-79
2023/02/17 06:24:43;;;;;;;0.00;0.00;;;9.00;99.90;;;;;;5023838;28;20187;-79
2023/02/17 06:27:08;;;;;;;0.10;0.10;;;8.90;99.90;;;;;;5021506;28;20213;-79
2023/02/17 06:29:34;;;;;;;0.10;0.10;;;8.90;99.90;;;;;;5023725;28;20596;-79
2023/02/17 06:32:00;;;;;;;0.00;0.00;;;9.00;99.90;;;;;;5023597;28;20264;-80
2023/02/17 06:34:26;;;;;;;0.07;0.07;;;9.10;99.90;;;;;;5020114;28;20178;-79
2023/02/17 06:36:51;;;;;;;0.03;0.03;;;9.10;99.90;;;;;;5023752;28;20804;-80
2023/02/17 06:39:17;;;;;;;0.10;0.10;;;9.10;99.90;;;;;;5023010;28;20186;-80
2023/02/17 06:41:43;;;;;;;0.10;0.10;;;9.10;99.90;;;;;;5025539;28;20186;-80
2023/02/17 06:44:08;;;;;;;0.00;0.00;;;9.20;99.90;;;;;;5022824;28;20244;-79
2023/02/17 06:46:34;;;;;;;0.10;0.10;;;9.20;99.90;;;;;;5021361;28;20698;-79
2023/02/17 06:49:00;;;;;;;0.10;0.10;;;9.20;99.90;;;;;;5024274;28;20277;-80
2023/02/17 06:51:26;;;;;;;0.00;0.00;;;9.00;99.90;;;;;;5028527;28;20553;-79
2023/02/17 06:53:52;;;;;;;0.10;0.10;;;8.90;99.90;;;;;;5027423;28;20584;-79
2023/02/17 06:56:17;;;;;;;0.10;0.10;;;9.00;99.90;;;;;;5027016;28;20217;-80
2023/02/17 06:58:43;;;;;;;0.10;0.10;;;9.10;99.90;;;;;;5026993;28;20182;-80
2023/02/17 07:01:16;;;;;;;0.10;0.10;;;9.20;99.90;;;;;;5025448;28;20288;-80
2023/02/17 07:03:42;;;;;;;0.10;0.10;;;9.10;99.90;;;;;;5026757;28;20209;-80
2023/02/17 07:06:07;;;;;;;0.10;0.10;;;9.20;99.90;;;;;;5026814;28;20193;-79
2023/02/17 07:08:33;;;;;;;0.10;0.10;;;9.20;99.90;;;;;;5022928;28;20194;-79
2023/02/17 07:10:58;;;;;;;0.10;0.10;;;9.10;99.90;;;;;;5026427;28;20740;-80
2023/02/17 07:13:24;;;;;;;0.10;0.10;;;9.10;99.90;;;;;;5022323;28;20198;-80
2023/02/17 07:15:49;;;;;;;0.10;0.10;;;9.20;99.90;;;;;;5027069;28;20190;-79
2023/02/17 07:18:15;;;;;;;0.10;0.10;;;9.20;99.90;;;;;;5026388;28;20220;-79
2023/02/17 07:20:40;;;;;;;0.07;0.07;;;9.30;99.90;;;;;;5027798;28;20278;-79
2023/02/17 07:23:06;;;;;;;0.07;0.07;;;9.40;99.90;;;;;;5025559;28;20208;-79
2023/02/17 07:25:32;;;;;;;0.10;0.10;;;9.50;99.90;;;;;;5026546;28;20757;-79
2023/02/17 07:27:59;;;;;;;0.10;0.10;;;9.30;99.90;;;;;;5025857;28;20631;-80
2023/02/17 07:30:24;;;;;;;0.10;0.10;;;9.20;99.90;;;;;;5027062;28;20190;-80
2023/02/17 07:32:50;;;;;;;0.10;0.10;;;9.10;99.90;;;;;;5023539;28;20259;-79
2023/02/17 07:35:16;;;;;;;0.10;0.10;;;9.10;99.90;;;;;;5026173;28;20183;-79
2023/02/17 07:37:41;;;;;;;0.10;0.10;;;9.20;99.90;;;;;;5023082;28;20182;-79
2023/02/17 07:40:07;;;;;;;0.10;0.10;;;9.40;99.90;;;;;;5027257;28;20183;-79
2023/02/17 07:42:33;;;;;;;0.00;0.00;;;9.30;99.90;;;;;;5023251;28;20206;-79
2023/02/17 07:44:58;;;;;;;0.10;0.10;;;9.30;99.90;;;;;;5018496;28;20232;-79
2023/02/17 07:47:24;;;;;;;0.10;0.10;;;9.30;99.90;;;;;;5021963;28;20182;-79
2023/02/17 07:49:49;;;;;;;0.10;0.10;;;9.50;99.90;;;;;;5024704;28;20198;-79
2023/02/17 07:52:16;;;;;;;0.03;0.03;;;9.70;99.90;;;;;;5027321;28;20254;-80
2023/02/17 07:54:42;;;;;;;0.10;0.10;;;9.80;99.90;;;;;;5026339;28;20251;-79
2023/02/17 07:57:07;;;;;;;0.10;0.10;;;9.90;99.90;;;;;;5025267;28;20190;-79
2023/02/17 07:59:33;;;;;;;0.10;0.10;;;10.00;99.90;;;;;;5024749;28;20277;-79
2023/02/17 08:01:58;;;;;;;0.00;0.00;;;10.10;99.90;;;;;;5024333;28;20293;-79
2023/02/17 08:04:24;;;;;;;0.10;0.10;;;10.20;99.90;;;;;;5027179;28;20263;-80
2023/02/17 08:06:50;;;;;;;0.10;0.10;;;10.30;99.90;;;;;;5025456;28;20186;-79
2023/02/17 08:15:03;;;;;;;0.10;0.10;;;10.40;99.90;;;;;;5025001;28;20585;-79
2023/02/17 08:17:29;;;;;;;0.00;0.00;;;10.50;99.90;;;;;;5025170;28;20190;-80
2023/02/17 08:19:55;;;;;;;0.10;0.10;;;10.50;99.90;;;;;;5025402;28;20277;-80
2023/02/17 08:22:20;;;;;;;0.10;0.10;;;10.60;99.90;;;;;;5027181;28;20237;-80
2023/02/17 08:24:46;;;;;;;0.10;0.10;;;10.80;99.90;;;;;;5025781;28;20189;-79
2023/02/17 08:27:16;;;;;;;0.10;0.10;;;10.90;99.90;;;;;;5024126;28;20187;-80
2023/02/17 08:29:42;;;;;;;0.00;0.00;;;10.90;99.90;;;;;;5027399;28;20248;-80
2023/02/17 08:32:08;;;;;;;0.00;0.00;;;11.10;99.90;;;;;;5025123;28;20218;-80
2023/02/17 08:34:33;;;;;;;0.03;0.03;;;11.10;99.90;;;;;;5025038;28;20186;-80
2023/02/17 08:37:00;;;;;;;0.10;0.10;;;11.20;99.90;;;;;;5022437;28;20647;-80
2023/02/17 08:39:26;;;;;;;0.10;0.10;;;11.20;99.90;;;;;;5026183;28;20335;-80
2023/02/17 08:41:52;;;;;;;0.10;0.10;;;11.20;99.90;;;;;;5025920;28;20794;-80
2023/02/17 08:44:20;;;;;;;0.10;0.10;;;11.10;99.90;;;;;;5024861;28;20213;-80
2023/02/17 08:46:47;;;;;;;0.10;0.10;;;11.10;99.90;;;;;;5025654;28;20190;-80
2023/02/17 08:49:13;;;;;;;0.10;0.10;;;11.10;99.90;;;;;;5026354;28;20240;-80
2023/02/17 08:51:39;;;;;;;0.10;0.10;;;11.10;99.90;;;;;;5026067;28;20573;-80
2023/02/17 08:54:09;;;;;;;0.10;0.10;;;11.10;99.90;;;;;;5024440;28;20655;-80
2023/02/17 08:56:36;;;;;;;0.10;0.10;;;11.00;99.90;;;;;;5022569;28;20189;-79
2023/02/17 08:59:02;;;;;;;0.10;0.10;;;11.00;99.90;;;;;;5026144;28;20626;-80
2023/02/17 09:01:28;;;;;;;0.10;0.10;;;11.00;99.90;;;;;;5024719;28;20238;-81
2023/02/17 09:03:56;;;;;;;0.10;0.10;;;11.10;99.90;;;;;;5025661;28;20246;-80
2023/02/17 09:06:21;;;;;;;0.10;0.10;;;11.10;99.90;;;;;;5024351;28;20263;-80
2023/02/17 09:08:48;;;;;;;0.00;0.00;;;11.10;99.90;;;;;;5025393;28;20197;-80
2023/02/17 09:11:15;;;;;;;0.07;0.07;;;11.20;99.90;;;;;;5024807;28;20667;-80
2023/02/17 09:13:42;;;;;;;0.10;0.10;;;11.20;99.90;;;;;;5019823;28;20293;-79
2023/02/17 09:16:08;;;;;;;0.10;0.10;;;11.20;99.90;;;;;;5024106;28;20195;-80
2023/02/17 09:18:33;;;;;;;0.10;0.10;;;11.20;99.90;;;;;;5024592;28;20190;-80
2023/02/17 09:21:07;;;;;;;0.10;0.10;;;11.30;99.90;;;;;;5023354;28;20194;-80
2023/02/17 09:23:33;;;;;;;0.10;0.10;;;11.30;99.90;;;;;;5023562;28;20210;-80
2023/02/17 09:26:07;;;;;;;0.10;0.10;;;11.30;99.90;;;;;;5025552;28;20194;-80
2023/02/17 09:28:33;;;;;;;0.10;0.10;;;11.30;99.90;;;;;;5023403;28;20186;-80
2023/02/17 09:31:11;;;;;;;0.00;0.00;;;11.40;99.90;;;;;;5023702;28;20679;-79
2023/02/17 09:33:39;;;;;;;0.10;0.10;;;11.40;99.90;;;;;;5025066;28;20230;-81
2023/02/17 09:36:11;;;;;;;0.00;0.00;;;11.40;99.90;;;;;;5024887;28;20940;-80
2023/02/17 09:38:38;;;;;;;0.10;0.10;;;11.50;99.90;;;;;;5023009;28;20240;-80
2023/02/17 09:41:23;;;;;;;0.10;0.10;;;11.50;99.90;;;;;;5023495;28;20191;-80
2023/02/17 09:43:50;;;;;;;0.10;0.10;;;11.60;99.90;;;;;;5024667;28;20218;-79
2023/02/17 09:46:24;;;;;;;0.10;0.10;;;11.80;99.90;;;;;;5021168;28;20183;-79
2023/02/17 09:48:51;;;;;;;0.10;0.10;;;12.00;99.90;;;;;;5026184;28;20206;-80
2023/02/17 09:51:40;;;;;;;0.10;0.10;;;12.10;99.90;;;;;;5025196;28;20568;-79
2023/02/17 09:54:09;;;;;;;0.10;0.10;;;12.10;99.90;;;;;;5025976;28;20188;-79
2023/02/17 09:56:40;;;;;;;0.10;0.10;;;12.00;99.90;;;;;;5024348;28;20209;-80
2023/02/17 09:59:14;;;;;;;0.10;0.10;;;11.90;99.90;;;;;;5026453;28;20652;-79
2023/02/17 10:01:41;;;;;;;0.10;0.10;;;12.00;99.90;;;;;;5023203;28;20570;-80
2023/02/17 10:04:21;;;;;;;0.10;0.10;;;12.00;99.90;;;;;;5024884;28;20183;-80
2023/02/17 10:06:57;;;;;;;0.10;0.10;;;12.10;99.90;;;;;;5023551;28;20670;-80
2023/02/17 10:09:36;;;;;;;0.00;0.00;;;12.20;99.90;;;;;;5025394;28;20182;-79
2023/02/17 10:12:37;;;;;;;0.10;0.10;;;12.30;99.90;;;;;;5023595;28;20241;-79
2023/02/17 10:15:13;;;;;;;0.10;0.10;;;12.50;99.90;;;;;;5020943;28;20229;-80
2023/02/17 10:17:57;;;;;;;0.10;0.10;;;12.60;99.90;;;;;;5023890;28;20184;-79
2023/02/17 10:20:31;;;;;;;0.10;0.10;;;12.50;99.90;;;;;;5024726;28;20181;-79
2023/02/17 10:23:19;;;;;;;0.10;0.10;;;12.50;99.90;;;;;;5024361;28;20252;-80
2023/02/17 10:26:12;;;;;;;0.10;0.10;;;12.70;99.90;;;;;;5027482;28;20265;-80
2023/02/17 10:29:05;;;;;;;0.03;0.03;;;12.80;99.90;;;;;;5028092;28;20585;-80
2023/02/17 10:31:41;;;;;;;0.10;0.10;;;12.80;99.90;;;;;;5028931;28;20234;-80
2023/02/17 10:34:33;;;;;;;0.10;0.10;;;12.80;99.90;;;;;;5029223;28;20201;-80
2023/02/17 10:37:13;;;;;;;0.10;0.10;;;12.90;99.90;;;;;;5027641;28;20252;-80
2023/02/17 10:39:50;;;;;;;0.10;0.10;;;12.90;99.90;;;;;;5027341;28;20184;-80
2023/02/17 10:42:31;;;;;;;0.10;0.10;;;13.00;99.90;;;;;;5027575;28;20219;-79
2023/02/17 10:45:09;;;;;;;0.10;0.10;;;13.00;99.90;;;;;;5026949;28;20560;-79
2023/02/17 10:47:37;;;;;;;0.10;0.10;;;13.10;99.90;;;;;;5027374;28;20635;-79
2023/02/17 10:50:07;;;;;;;0.10;0.10;;;13.10;99.90;;;;;;5026975;28;20186;-79
2023/02/17 10:52:38;;;;;;;0.10;0.10;;;13.20;99.90;;;;;;5028347;28;20220;-79
2023/02/17 10:55:18;;;;;;;0.10;0.10;;;13.30;99.90;;;;;;5027896;28;20197;-79
2023/02/17 10:57:46;;;;;;;0.10;0.10;;;13.30;99.90;;;;;;5027092;28;20185;-80
2023/02/17 11:00:17;;;;;;;0.10;0.10;;;13.40;99.90;;;;;;5023360;28;20198;-80
2023/02/17 11:02:49;;;;;;;0.10;0.10;;;13.50;99.90;;;;;;5026818;28;20202;-80
2023/02/17 11:05:29;;;;;;;0.10;0.10;;;13.50;99.90;;;;;;5027249;28;20275;-80
2023/02/17 11:08:01;;;;;;;0.10;0.10;;;13.70;99.90;;;;;;5026306;28;20185;-80
2023/02/17 11:10:36;;;;;;;0.10;0.10;;;13.80;99.90;;;;;;5028557;28;20193;-79
2023/02/17 11:13:17;;;;;;;0.10;0.10;;;13.90;99.90;;;;;;5027416;28;20203;-80
2023/02/17 11:15:45;;;;;;;0.10;0.10;;;13.90;99.90;;;;;;5027933;28;20188;-80
2023/02/17 11:18:19;;;;;;;0.10;0.10;;;14.00;99.90;;;;;;5026701;28;20185;-80
2023/02/17 11:20:45;;;;;;;0.10;0.10;;;14.00;99.90;;;;;;5028134;28;20185;-80
2023/02/17 11:23:14;;;;;;;0.03;0.03;;;14.20;99.90;;;;;;5025581;28;20200;-80
2023/02/17 11:25:39;;;;;;;0.10;0.10;;;14.20;99.90;;;;;;5024899;28;20199;-80
2023/02/17 11:28:11;;;;;;;0.10;0.10;;;14.30;99.90;;;;;;5026976;28;20183;-79
2023/02/17 11:30:47;;;;;;;0.10;0.10;;;14.30;99.90;;;;;;5026388;28;20235;-80
2023/02/17 11:33:38;;;;;;;0.10;0.10;;;14.50;99.90;;;;;;5021435;28;20637;-80
2023/02/17 11:36:06;;;;;;;0.10;0.10;;;14.50;99.90;;;;;;5026347;28;20176;-79
2023/02/17 11:38:44;;;;;;;0.10;0.10;;;14.70;99.90;;;;;;5025677;28;20766;-80
2023/02/17 11:41:10;;;;;;;0.10;0.10;;;14.70;99.90;;;;;;5024525;28;20201;-80
2023/02/17 11:43:37;;;;;;;0.10;0.10;;;14.70;99.90;;;;;;5025848;28;20241;-79
2023/02/17 11:46:15;;;;;;;0.10;0.10;;;14.50;99.90;;;;;;5026996;28;20181;-80
2023/02/17 11:48:53;;;;;;;0.10;0.10;;;14.60;99.90;;;;;;5025770;28;20713;-80
2023/02/17 11:51:43;;;;;;;0.10;0.10;;;14.60;99.90;;;;;;5026286;28;20559;-80
2023/02/17 11:54:21;;;;;;;0.10;0.10;;;14.70;99.90;;;;;;5026039;28;20243;-80
2023/02/17 11:57:16;;;;;;;0.10;0.10;;;14.60;99.90;;;;;;5025740;28;20181;-80
2023/02/17 12:00:08;;;;;;;0.10;0.10;;;14.60;99.90;;;;;;5026970;28;20194;-79
2023/02/17 12:02:58;;;;;;;0.10;0.10;;;14.60;99.90;;;;;;5026909;28;20258;-80
2023/02/17 12:05:48;;;;;;;0.10;0.10;;;14.50;99.90;;;;;;5028318;28;20710;-79
2023/02/17 12:08:39;;;;;;;0.10;0.10;;;14.50;99.90;;;;;;5027548;28;20193;-80
2023/02/17 12:11:09;;;;;;;0.10;0.10;;;14.30;99.90;;;;;;5027983;28;20237;-79
2023/02/17 12:13:43;;;;;;;0.10;0.10;;;14.40;99.90;;;;;;5026778;28;20689;-79
2023/02/17 12:16:38;;;;;;;0.10;0.10;;;14.40;99.90;;;;;;5023888;28;20212;-80
2023/02/17 12:19:22;;;;;;;0.10;0.10;;;14.50;99.90;;;;;;5024584;28;20205;-80
2023/02/17 12:22:16;;;;;;;0.10;0.10;;;14.60;99.90;;;;;;5027994;28;20314;-80
2023/02/17 12:25:02;;;;;;;0.10;0.10;;;14.60;99.90;;;;;;5028524;28;20185;-80
2023/02/17 12:27:49;;;;;;;0.10;0.10;;;14.60;99.90;;;;;;5026614;28;20220;-80
2023/02/17 12:30:50;;;;;;;0.10;0.10;;;14.50;99.90;;;;;;5027875;28;20186;-79
2023/02/17 12:33:58;;;;;;;0.10;0.10;;;14.50;99.90;;;;;;5026182;28;20206;-79
2023/02/17 12:36:33;;;;;;;0.10;0.10;;;14.40;99.90;;;;;;5023909;28;20840;-80
2023/02/17 12:39:02;;;;;;;0.10;0.10;;;14.30;99.90;;;;;;5026208;28;20585;-80
2023/02/17 12:41:39;;;;;;;0.10;0.10;;;14.40;99.90;;;;;;5027766;28;20178;-80
2023/02/17 12:44:15;;;;;;;0.10;0.10;;;14.30;99.90;;;;;;5025382;28;20193;-80
2023/02/17 12:46:49;;;;;;;0.10;0.10;;;14.30;99.90;;;;;;5025678;28;20654;-80
2023/02/17 12:49:38;;;;;;;0.10;0.10;;;14.20;99.90;;;;;;5025078;28;20186;-80
2023/02/17 12:52:35;;;;;;;0.10;0.10;;;14.30;99.90;;;;;;5025726;28;20222;-80
2023/02/17 12:55:19;;;;;;;0.10;0.10;;;14.40;99.90;;;;;;5025190;28;20190;-80
2023/02/17 12:57:52;;;;;;;0.10;0.10;;;14.30;99.90;;;;;;5026931;28;20185;-80
2023/02/17 13:00:39;;;;;;;0.10;0.10;;;14.50;99.90;;;;;;5018295;28;20679;-80
2023/02/17 13:03:06;;;;;;;0.10;0.10;;;14.40;99.90;;;;;;5025357;28;20206;-80
2023/02/17 13:05:45;;;;;;;0.00;0.00;;;14.30;99.90;;;;;;5024143;28;21019;-80
2023/02/17 13:08:20;;;;;;;0.10;0.10;;;14.10;99.90;;;;;;5025034;28;20629;-80
2023/02/17 13:10:45;;;;;;;0.10;0.10;;;14.20;99.90;;;;;;5024779;28;20234;-79
2023/02/17 13:13:25;;;;;;;0.10;0.10;;;14.20;99.90;;;;;;5026458;28;20213;-79
2023/02/17 13:16:03;;;;;;;0.00;0.00;;;14.30;99.90;;;;;;5025612;28;20570;-80